Data for 01/09/2014

Time Sea-Level Adjusted Pressure Absolute Pressure Temperature Relative Humidity Dew Point   
(mb) (inHg) (mb) (inHg) (C) (F) (%) (C) (F)
00:05 1011 29.85 841 24.83 1.1 33.9 53 -7.5 18.6
00:10 1011 29.85 841 24.83 1.1 34 54 -7.2 19
00:15 1011 29.85 841 24.83 1.1 34.1 53 -7.5 18.5
00:20 1011 29.85 841 24.83 1.2 34.2 52 -7.4 18.6
00:25 1011 29.85 840 24.81 1.3 34.4 51 -7.6 18.3
00:30 1011 29.85 840 24.81 1.3 34.3 52 -7.6 18.4
00:35 1011 29.85 840 24.81 1.3 34.3 52 -7.6 18.3
00:40 1011 29.85 840 24.81 1.5 34.6 49 -8.1 17.4
00:45 1011 29.85 840 24.81 1.9 35.4 49 -7.7 18.1
00:50 1011 29.85 840 24.81 1.9 35.4 48 -8 17.6
00:55 1011 29.85 840 24.81 1.9 35.4 50 -7.5 18.4
01:00 1011 29.85 840 24.81 1.7 35.1 49 -7.9 17.9
01:05 1011 29.85 840 24.81 1.7 35.1 52 -7.2 19.1
01:10 1011 29.85 840 24.81 1.2 34.1 53 -7.3 18.8
01:15 1011 29.85 840 24.81 1 33.8 54 -7.3 18.9
01:20 1011 29.85 840 24.81 0.8 33.5 53 -7.7 18.1
01:25 1010 29.83 840 24.81 1.5 34.7 50 -7.8 17.9
01:30 1010 29.83 840 24.81 1.4 34.6 54 -6.9 19.6
01:35 1010 29.83 840 24.81 0.9 33.7 57 -6.7 20
01:40 1010 29.83 840 24.81 0.7 33.3 57 -6.9 19.6
01:45 1010 29.83 839 24.78 0.6 33.1 58 -6.7 19.9
01:50 1010 29.83 839 24.78 0.6 33.1 55 -7.4 18.7
01:55 1010 29.83 839 24.78 1 33.8 54 -7.3 18.8
02:00 1010 29.83 839 24.78 1.1 34 55 -6.9 19.6
02:05 1010 29.83 839 24.78 1.3 34.3 50 -8 17.6
02:10 1010 29.83 839 24.78 1.6 34.9 50 -7.7 18.2
02:15 1010 29.83 839 24.78 1.6 34.8 56 -6.3 20.7
02:20 1010 29.83 839 24.78 1.3 34.3 55 -6.7 19.9
02:25 1009 29.8 839 24.78 1.1 34.1 55 -6.9 19.5
02:30 1009 29.8 839 24.78 0.9 33.6 57 -6.7 19.9
02:35 1009 29.8 839 24.78 0.7 33.2 58 -6.6 20.2
02:40 1009 29.8 839 24.78 0.3 32.6 59 -6.8 19.8
02:45 1009 29.8 839 24.78 0.5 33 55 -7.4 18.6
02:50 1009 29.8 839 24.78 0.8 33.4 57 -6.7 20
02:55 1009 29.8 839 24.78 0.7 33.3 56 -7 19.4
03:00 1009 29.8 839 24.78 1.1 33.9 51 -8 17.6
03:05 1009 29.8 839 24.78 1.5 34.8 53 -7.1 19.2
03:10 1009 29.8 839 24.78 1.3 34.4 53 -7.2 19
03:15 1009 29.8 838 24.75 1.4 34.6 51 -7.5 18.5
03:20 1009 29.8 838 24.75 2 35.7 51 -6.9 19.5
03:25 1009 29.8 838 24.75 2.1 35.7 52 -6.7 19.9
03:30 1009 29.8 838 24.75 2 35.5 53 -6.7 20
03:35 1009 29.8 838 24.75 1.9 35.4 52 -6.9 19.7
03:40 1009 29.8 838 24.75 1.6 34.9 53 -6.9 19.7
03:45 1009 29.8 838 24.75 1.7 35 53 -6.9 19.7
03:50 1009 29.8 838 24.75 1.4 34.5 55 -6.6 20
03:55 1009 29.8 838 24.75 1.2 34.2 55 -6.8 19.8
04:00 1009 29.8 838 24.75 1.2 34.2 54 -7 19.3
04:05 1009 29.8 838 24.75 1.7 35 54 -6.7 20
04:10 1009 29.8 838 24.75 1.9 35.5 53 -6.6 20.1
04:15 1009 29.8 838 24.75 2.2 36 51 -6.8 19.8
04:20 1009 29.8 838 24.75 2.2 35.9 53 -6.5 20.4
04:25 1009 29.8 838 24.75 2.3 36.2 54 -6.1 21.1
04:30 1009 29.8 838 24.75 2.4 36.3 54 -6.1 21.1
04:35 1009 29.8 838 24.75 2.6 36.7 54 -5.8 21.6
04:40 1009 29.8 838 24.75 2.5 36.5 56 -5.4 22.3
04:45 1009 29.8 838 24.75 2.5 36.5 54 -5.8 21.5
04:50 1009 29.8 838 24.75 2.8 37 55 -5.4 22.4
04:55 1008 29.77 838 24.75 2.7 36.9 54 -5.7 21.8
05:00 1008 29.77 838 24.75 3 37.4 51 -6 21.1
05:05 1008 29.77 838 24.75 3.1 37.7 53 -5.4 22.3
05:10 1008 29.77 837 24.72 3 37.5 53 -5.5 22
05:15 1008 29.77 837 24.72 2.8 37.1 55 -5.4 22.3
05:20 1008 29.77 837 24.72 2.7 36.9 56 -5.2 22.6
05:25 1008 29.77 837 24.72 2.7 36.8 57 -5 23
05:30 1008 29.77 837 24.72 2.7 36.8 57 -5.1 22.8
05:35 1008 29.77 837 24.72 2.6 36.7 57 -4.9 23.1
05:40 1008 29.77 837 24.72 2.4 36.3 58 -5 22.9
05:45 1008 29.77 837 24.72 2 35.6 59 -5.1 22.8
05:50 1008 29.77 837 24.72 1.9 35.5 58 -5.6 21.9
05:55 1008 29.77 837 24.72 2 35.6 57 -5.7 21.8
06:00 1008 29.77 837 24.72 2 35.5 57 -5.7 21.8
06:05 1008 29.77 837 24.72 2 35.7 57 -5.6 21.9
06:10 1008 29.77 837 24.72 2 35.6 57 -5.7 21.7
06:15 1008 29.77 837 24.72 2 35.6 57 -5.8 21.6
06:20 1007 29.74 837 24.72 1.8 35.2 58 -5.5 22
06:25 1007 29.74 837 24.72 1.5 34.8 59 -5.7 21.8
06:30 1007 29.74 836 24.69 1.5 34.7 59 -5.7 21.8
06:35 1007 29.74 836 24.69 1.5 34.7 59 -5.8 21.6
06:40 1007 29.74 836 24.69 1.6 34.8 58 -5.9 21.4
06:45 1007 29.74 836 24.69 1.7 35 58 -5.6 21.9
06:50 1007 29.74 836 24.69 1.6 35 59 -5.5 22
06:55 1007 29.74 836 24.69 1.7 35.1 58 -5.7 21.8
07:00 1007 29.74 836 24.69 1.9 35.5 58 -5.5 22.1
07:05 1007 29.74 836 24.69 1.9 35.3 58 -5.6 21.9
07:10 1007 29.74 836 24.69 1.9 35.5 57 -5.7 21.8
07:15 1007 29.74 836 24.69 2 35.6 59 -5.2 22.7
07:20 1007 29.74 836 24.69 1.8 35.2 59 -5.3 22.4
07:25 1007 29.74 836 24.69 1.6 35 60 -5.2 22.6
07:30 1007 29.74 836 24.69 1.5 34.7 62 -5.1 22.9
07:35 1007 29.74 836 24.69 1.3 34.3 61 -5.5 22.2
07:40 1007 29.74 836 24.69 2 35.5 55 -6.2 20.8
07:45 1007 29.74 836 24.69 2 35.6 58 -5.4 22.3
07:50 1007 29.74 836 24.69 1.7 35 60 -5.4 22.3
07:55 1007 29.74 836 24.69 1.6 35 60 -5.3 22.5
08:00 1007 29.74 836 24.69 1.6 34.8 61 -5.1 22.8
08:05 1007 29.74 836 24.69 1.7 35 62 -4.8 23.3
08:10 1007 29.74 836 24.69 1.7 35.1 61 -5 23.1
08:15 1007 29.74 836 24.69 1.7 35.1 61 -5.1 22.8
08:20 1007 29.74 836 24.69 1.8 35.2 61 -4.9 23.2
08:25 1007 29.74 836 24.69 1.5 34.8 64 -4.5 24
08:30 1007 29.74 836 24.69 1.3 34.3 67 -4.2 24.4
08:35 1007 29.74 837 24.72 1.2 34.2 70 -3.7 25.3
08:40 1007 29.74 837 24.72 0.7 33.2 79 -2.5 27.6
08:45 1008 29.77 837 24.72 -0.3 31.5 86 -2.3 27.8
08:50 1008 29.77 837 24.72 -0.8 30.5 89 -2.4 27.6
08:55 1008 29.77 837 24.72 -1.1 30 91 -2.4 27.6
09:00 1008 29.77 837 24.72 -1.3 29.6 93 -2.3 27.8
09:05 1008 29.77 837 24.72 -1.4 29.5 94 -2.2 28
09:10 1008 29.77 837 24.72 -1.4 29.5 94 -2.2 28.1
09:15 1008 29.77 837 24.72 -1.4 29.5 94 -2.2 28.1
09:20 1008 29.77 837 24.72 -1.4 29.5 94 -2.2 28
09:25 1008 29.77 837 24.72 -1.4 29.4 94 -2.3 27.9
09:30 1008 29.77 837 24.72 -1.4 29.4 94 -2.3 27.9
09:35 1008 29.77 837 24.72 -1.4 29.4 94 -2.3 27.9
09:40 1008 29.77 837 24.72 -1.4 29.5 94 -2.3 27.9
09:45 1008 29.77 837 24.72 -1.4 29.5 94 -2.3 27.9
09:50 1008 29.77 837 24.72 -1.3 29.6 93 -2.3 27.8
09:55 1008 29.77 837 24.72 -1.4 29.5 93 -2.3 27.8
10:00 1008 29.77 837 24.72 -1.4 29.5 93 -2.3 27.8
10:05 1008 29.77 837 24.72 -1.3 29.6 93 -2.3 27.9
10:10 1008 29.77 837 24.72 -1.3 29.6 93 -2.3 27.8
10:15 1008 29.77 837 24.72 -1.4 29.5 92 -2.4 27.6
10:20 1008 29.77 837 24.72 -1.3 29.6 92 -2.5 27.5
10:25 1008 29.77 837 24.72 -1.3 29.6 92 -2.5 27.5
10:30 1008 29.77 837 24.72 -1.3 29.7 91 -2.5 27.5
10:35 1008 29.77 837 24.72 -1.2 29.9 90 -2.5 27.4
10:40 1008 29.77 837 24.72 -1.1 30.1 91 -2.4 27.7
10:45 1008 29.77 837 24.72 -1 30.2 90 -2.4 27.6
10:50 1008 29.77 837 24.72 -0.9 30.3 90 -2.4 27.7
10:55 1008 29.77 837 24.72 -0.9 30.4 90 -2.3 27.9
11:00 1008 29.77 837 24.72 -0.8 30.5 90 -2.3 27.9
11:05 1008 29.77 837 24.72 -0.8 30.6 90 -2.3 27.9
11:10 1008 29.77 837 24.72 -0.7 30.7 90 -2.2 28
11:15 1008 29.77 837 24.72 -0.7 30.7 89 -2.3 27.8
11:20 1008 29.77 837 24.72 -0.6 30.9 90 -2.1 28.2
11:25 1008 29.77 837 24.72 -0.5 31.1 88 -2.2 28
11:30 1008 29.77 837 24.72 -0.6 31 88 -2.3 27.8
11:35 1008 29.77 837 24.72 -0.5 31.1 87 -2.4 27.6
11:40 1008 29.77 837 24.72 -0.3 31.5 87 -2.3 27.9
11:45 1008 29.77 837 24.72 0.1 32.2 84 -2.2 28
11:50 1008 29.77 837 24.72 0.2 32.4 85 -2.1 28.2
11:55 1008 29.77 837 24.72 0.3 32.6 84 -2.1 28.2
12:00 1008 29.77 837 24.72 0.1 32.2 84 -2.3 27.9
12:05 1008 29.77 837 24.72 0.3 32.5 83 -2.3 27.9
12:10 1008 29.77 837 24.72 0.5 32.9 82 -2.2 28
12:15 1008 29.77 837 24.72 0.4 32.7 83 -2.2 28
12:20 1008 29.77 837 24.72 0.7 33.3 81 -2.2 28
12:25 1008 29.77 837 24.72 1.1 34.1 78 -2.3 27.8
12:30 1008 29.77 837 24.72 1.5 34.7 76 -2.2 28.1
12:35 1008 29.77 837 24.72 1.6 34.9 77 -2 28.5
12:40 1008 29.77 837 24.72 1.7 35.1 75 -2.3 27.9
12:45 1008 29.77 837 24.72 1.8 35.3 73 -2.4 27.6
12:50 1008 29.77 837 24.72 1.6 34.9 75 -2.4 27.7
12:55 1008 29.77 837 24.72 1.3 34.3 77 -2.3 27.8
13:00 1008 29.77 837 24.72 1.3 34.3 77 -2.4 27.8
13:05 1008 29.77 837 24.72 1.8 35.2 73 -2.6 27.4
13:10 1008 29.77 837 24.72 2.2 35.9 71 -2.5 27.4
13:15 1008 29.77 837 24.72 2.4 36.3 69 -2.6 27.3
13:20 1008 29.77 837 24.72 2.6 36.7 68 -2.6 27.3
13:25 1008 29.77 837 24.72 2.7 36.8 68 -2.6 27.3
13:30 1008 29.77 837 24.72 2.1 35.8 72 -2.4 27.6
13:35 1008 29.77 837 24.72 1.8 35.2 71 -2.8 26.9
13:40 1008 29.77 837 24.72 2.4 36.4 68 -2.8 27
13:45 1008 29.77 837 24.72 2.5 36.5 70 -2.5 27.6
13:50 1008 29.77 837 24.72 2.8 37 68 -2.6 27.3
13:55 1008 29.77 837 24.72 2.9 37.3 67 -2.5 27.4
14:00 1008 29.77 837 24.72 2.9 37.2 67 -2.7 27.1
14:05 1008 29.77 837 24.72 2.7 36.9 66 -2.9 26.7
14:10 1008 29.77 837 24.72 2.9 37.2 64 -3.2 26.3
14:15 1008 29.77 837 24.72 3.2 37.8 64 -3 26.6
14:20 1008 29.77 837 24.72 3.1 37.6 64 -3 26.7
14:25 1007 29.74 837 24.72 3.1 37.6 62 -3.4 25.8
14:30 1008 29.77 837 24.72 3.1 37.7 62 -3.4 25.9
14:35 1008 29.77 837 24.72 3.3 37.9 60 -3.8 25.1
14:40 1008 29.77 837 24.72 3.3 37.9 60 -3.7 25.4
14:45 1008 29.77 837 24.72 3.1 37.6 61 -3.6 25.6
14:50 1008 29.77 837 24.72 3 37.4 61 -3.9 25.1
14:55 1007 29.74 837 24.72 3 37.4 61 -3.9 25
15:00 1008 29.77 837 24.72 2.8 37.1 62 -3.7 25.3
15:05 1008 29.77 837 24.72 2.6 36.7 65 -3.3 26
15:10 1008 29.77 837 24.72 2.6 36.7 66 -3.1 26.4
15:15 1008 29.77 837 24.72 2.5 36.6 66 -3.2 26.3
15:20 1008 29.77 837 24.72 2.5 36.4 66 -3.3 26
15:25 1008 29.77 837 24.72 2.6 36.6 64 -3.6 25.4
15:30 1008 29.77 837 24.72 2.8 37 62 -3.9 25
15:35 1008 29.77 837 24.72 2.8 37 61 -3.9 25
15:40 1008 29.77 837 24.72 2.5 36.5 61 -4.3 24.3
15:45 1008 29.77 837 24.72 2.5 36.5 59 -4.8 23.4
15:50 1008 29.77 837 24.72 2.8 37.1 54 -5.5 22.2
15:55 1008 29.77 837 24.72 2.9 37.2 54 -5.5 22.1
16:00 1008 29.77 837 24.72 3.1 37.6 52 -5.9 21.4
16:05 1008 29.77 837 24.72 3.4 38.2 47 -6.7 19.9
16:10 1008 29.77 837 24.72 3.5 38.3 47 -6.7 19.9
16:15 1008 29.77 837 24.72 3.7 38.6 45 -7 19.3
16:20 1008 29.77 837 24.72 4.1 39.3 45 -6.8 19.8
16:25 1008 29.77 837 24.72 4.1 39.4 44 -7 19.4
16:30 1008 29.77 837 24.72 4.3 39.7 45 -6.7 20
16:35 1008 29.77 837 24.72 3.6 38.5 47 -6.7 20
16:40 1008 29.77 837 24.72 2.9 37.3 50 -6.6 20.1
16:45 1008 29.77 838 24.75 2.5 36.4 52 -6.4 20.5
16:50 1008 29.77 838 24.75 2 35.7 51 -7.1 19.1
16:55 1008 29.77 838 24.75 1.7 35.1 50 -7.6 18.3
17:00 1008 29.77 838 24.75 1.7 35 50 -7.6 18.3
17:05 1008 29.77 838 24.75 1.6 34.8 51 -7.6 18.3
17:10 1009 29.8 838 24.75 1.5 34.6 48 -8.3 17.1
17:15 1009 29.8 838 24.75 1.4 34.6 48 -8.6 16.6
17:20 1009 29.8 838 24.75 1.4 34.5 48 -8.4 16.9
17:25 1009 29.8 838 24.75 1.3 34.4 49 -8.4 17
17:30 1009 29.8 838 24.75 1.2 34.2 49 -8.4 16.8
17:35 1009 29.8 838 24.75 1.2 34.1 49 -8.3 17
17:40 1009 29.8 838 24.75 1.1 34 50 -8.2 17.2
17:45 1009 29.8 838 24.75 1 33.9 50 -8.3 17.1
17:50 1009 29.8 838 24.75 1 33.8 50 -8.2 17.2
17:55 1009 29.8 838 24.75 1 33.8 51 -8.1 17.3
18:00 1009 29.8 838 24.75 0.9 33.7 51 -8.1 17.5
18:05 1009 29.8 838 24.75 0.7 33.2 53 -7.8 18
18:10 1009 29.8 838 24.75 0.4 32.8 51 -8.6 16.5
18:15 1009 29.8 838 24.75 0.4 32.7 50 -9 15.9
18:20 1009 29.8 838 24.75 0.4 32.7 48 -9.3 15.3
18:25 1009 29.8 839 24.78 0.4 32.7 49 -9.1 15.6
18:30 1009 29.8 839 24.78 0.3 32.5 49 -9.3 15.3
18:35 1009 29.8 839 24.78 0.2 32.3 49 -9.4 15
18:40 1009 29.8 839 24.78 0.1 32.2 48 -9.6 14.7
18:45 1009 29.8 839 24.78 0.1 32.1 47 -9.9 14.1
18:50 1009 29.8 839 24.78 0 32 48 -9.8 14.3
18:55 1010 29.83 839 24.78 -0.1 31.8 48 -9.7 14.5
19:00 1010 29.83 839 24.78 -0.2 31.6 49 -9.7 14.6
19:05 1010 29.83 839 24.78 -0.3 31.5 50 -9.6 14.8
19:10 1010 29.83 839 24.78 -0.4 31.4 49 -9.7 14.6
19:15 1010 29.83 839 24.78 -0.3 31.4 51 -9.4 15.2
19:20 1010 29.83 839 24.78 -0.3 31.4 50 -9.5 14.9
19:25 1010 29.83 839 24.78 -0.3 31.4 51 -9.3 15.3
19:30 1010 29.83 839 24.78 -0.3 31.4 51 -9.3 15.3
19:35 1010 29.83 839 24.78 -0.3 31.5 50 -9.4 15.2
19:40 1010 29.83 839 24.78 -0.3 31.5 51 -9.1 15.6
19:45 1010 29.83 839 24.78 -0.6 31 57 -8.1 17.4
19:50 1010 29.83 839 24.78 -1.3 29.6 58 -8.6 16.6
19:55 1010 29.83 839 24.78 -1.6 29.2 58 -8.8 16.2
20:00 1010 29.83 839 24.78 -1.9 28.7 59 -8.9 16
20:05 1010 29.83 839 24.78 -1.9 28.5 58 -9.1 15.7
20:10 1010 29.83 839 24.78 -1.7 29 57 -9.2 15.5
20:15 1010 29.83 839 24.78 -1.5 29.3 56 -9.3 15.3
20:20 1010 29.83 840 24.81 -1.4 29.4 52 -10.1 13.9
20:25 1010 29.83 840 24.81 -1.3 29.6 50 -10.6 13
20:30 1010 29.83 840 24.81 -1.3 29.7 48 -11.1 12.1
20:35 1010 29.83 840 24.81 -1.3 29.7 46 -11.5 11.3
20:40 1010 29.83 840 24.81 -1.4 29.5 45 -11.8 10.8
20:45 1010 29.83 839 24.78 -1.4 29.5 45 -11.9 10.5
20:50 1010 29.83 839 24.78 -1.3 29.7 44 -12.2 10.1
20:55 1010 29.83 839 24.78 -1.3 29.7 45 -11.6 11.1
21:00 1010 29.83 839 24.78 -1.5 29.2 46 -11.6 11.1
21:05 1010 29.83 839 24.78 -1.7 28.9 47 -11.6 11.1
21:10 1010 29.83 840 24.81 -1.8 28.8 47 -11.8 10.8
21:15 1010 29.83 840 24.81 -1.8 28.7 46 -11.9 10.5
21:20 1010 29.83 840 24.81 -1.9 28.5 48 -11.6 11.1
21:25 1010 29.83 840 24.81 -2.1 28.1 49 -11.5 11.3
21:30 1010 29.83 840 24.81 -2 28.4 46 -12.2 10.1
21:35 1010 29.83 840 24.81 -1.7 28.9 46 -12 10.4
21:40 1010 29.83 840 24.81 -1.8 28.8 46 -11.8 10.8
21:45 1010 29.83 840 24.81 -1.9 28.6 46 -12 10.4
21:50 1010 29.83 840 24.81 -2 28.4 47 -11.9 10.5
21:55 1010 29.83 840 24.81 -2.1 28.1 48 -11.7 11
22:00 1010 29.83 840 24.81 -2.4 27.7 49 -11.7 11
22:05 1010 29.83 840 24.81 -2.6 27.3 50 -11.7 11
22:10 1010 29.83 839 24.78 -2.8 27 51 -11.6 11.2
22:15 1010 29.83 839 24.78 -3 26.6 51 -11.7 11
22:20 1010 29.83 839 24.78 -3.1 26.4 51 -11.8 10.7
22:25 1010 29.83 839 24.78 -2.9 26.8 49 -12.1 10.2
22:30 1010 29.83 839 24.78 -2.6 27.4 48 -12.2 10
22:35 1010 29.83 839 24.78 -2.3 27.9 48 -11.9 10.6
22:40 1010 29.83 839 24.78 -2.3 27.8 47 -12 10.3
22:45 1010 29.83 839 24.78 -2.4 27.7 48 -12 10.5
22:50 1010 29.83 839 24.78 -2.7 27.2 50 -11.7 10.9
22:55 1010 29.83 839 24.78 -2.7 27.1 48 -12.3 9.9
23:00 1010 29.83 839 24.78 -2.5 27.5 49 -11.9 10.6
23:05 1010 29.83 839 24.78 -2.5 27.5 48 -12 10.4
23:10 1010 29.83 839 24.78 -2.5 27.5 49 -11.8 10.7
23:15 1010 29.83 839 24.78 -2.6 27.3 51 -11.5 11.3
23:20 1010 29.83 839 24.78 -2.7 27.1 51 -11.4 11.4
23:25 1010 29.83 839 24.78 -2.8 26.9 53 -11.2 11.9
23:30 1009 29.8 839 24.78 -3 26.5 54 -11 12.1
23:35 1009 29.8 839 24.78 -3.1 26.5 55 -10.9 12.4
23:40 1009 29.8 838 24.75 -3.3 26.1 53 -11.5 11.2
23:45 1009 29.8 838 24.75 -3.4 25.9 53 -11.6 11.1
23:50 1009 29.8 838 24.75 -3.1 26.5 49 -12.4 9.7
23:55 1009 29.8 838 24.75 -2.6 27.2 48 -12.2 10.1
24:00 1009 29.8 838 24.75 -2.3 27.9 48 -11.9 10.6